Time;durP1;ratioP1;P1;durP2;ratioP2;P2;SDS_P1;SDS_P2;PMS_P1;PMS_P2;Temp;Humidity;BMP_temperature;BMP_pressure;BME280_temperature;BME280_humidity;BME280_pressure;Samples;Min_cycle;Max_cycle;Signal;HPM_P1;HPM_P2
2023/01/26 00:02:05;;;;;;;15.73;13.73;;;;;;;;;;5057119;28;20377;-85
2023/01/26 00:04:31;;;;;;;17.38;14.63;;;;;;;;;;5055313;28;20494;-86
2023/01/26 00:06:57;;;;;;;15.48;13.18;;;;;;;;;;5055141;28;20381;-86
2023/01/26 00:09:23;;;;;;;17.20;14.15;;;;;;;;;;5057434;28;20388;-85
2023/01/26 00:11:49;;;;;;;16.65;14.10;;;;;;;;;;5058888;28;20401;-86
2023/01/26 00:14:15;;;;;;;16.05;14.30;;;;;;;;;;5055778;28;20396;-86
2023/01/26 00:16:41;;;;;;;16.20;14.50;;;;;;;;;;5036824;28;20886;-85
2023/01/26 00:19:07;;;;;;;16.15;14.10;;;;;;;;;;5059285;28;20373;-86
2023/01/26 00:21:33;;;;;;;16.92;13.95;;;;;;;;;;5056276;28;20388;-84
2023/01/26 00:23:59;;;;;;;17.25;14.77;;;;;;;;;;5061270;28;20518;-86
2023/01/26 00:26:26;;;;;;;18.07;14.97;;;;;;;;;;5072929;28;20368;-85
2023/01/26 00:28:53;;;;;;;15.40;13.43;;;;;;;;;;5071556;28;20872;-86
2023/01/26 00:31:21;;;;;;;18.05;14.80;;;;;;;;;;5054892;28;20877;-85
2023/01/26 00:33:47;;;;;;;16.67;14.73;;;;;;;;;;5069279;28;20392;-86
2023/01/26 00:36:13;;;;;;;17.20;14.13;;;;;;;;;;5076943;28;20773;-85
2023/01/26 00:38:40;;;;;;;15.65;13.98;;;;;;;;;;5078875;28;20382;-86
2023/01/26 00:41:06;;;;;;;15.43;13.60;;;;;;;;;;5069161;28;20432;-86
2023/01/26 00:43:33;;;;;;;15.40;13.60;;;;;;;;;;5068334;28;20405;-85
2023/01/26 00:45:59;;;;;;;17.42;14.20;;;;;;;;;;5059245;28;20442;-85
2023/01/26 00:48:25;;;;;;;16.27;14.30;;;;;;;;;;5082466;28;20420;-87
2023/01/26 00:50:51;;;;;;;16.58;13.88;;;;;;;;;;5041423;28;20397;-86
2023/01/26 00:53:17;;;;;;;15.25;13.63;;;;;;;;;;5060193;28;20441;-86
2023/01/26 00:55:43;;;;;;;16.30;13.43;;;;;;;;;;5056770;28;20416;-86
2023/01/26 00:58:09;;;;;;;15.50;13.45;;;;;;;;;;5039517;28;20388;-86
2023/01/26 01:00:36;;;;;;;16.60;14.15;;;;;;;;;;5067057;28;20396;-86
2023/01/26 01:03:03;;;;;;;16.35;13.40;;;;;;;;;;5037050;28;20409;-86
2023/01/26 01:05:30;;;;;;;16.60;13.38;;;;;;;;;;5045708;28;20415;-86
2023/01/26 01:07:56;;;;;;;14.77;13.13;;;;;;;;;;5058134;28;20374;-85
2023/01/26 01:10:22;;;;;;;14.18;12.68;;;;;;;;;;5058868;28;20493;-86
2023/01/26 01:12:49;;;;;;;14.45;12.52;;;;;;;;;;5057465;28;20797;-86
2023/01/26 01:15:15;;;;;;;15.23;12.70;;;;;;;;;;5054193;28;20900;-85
2023/01/26 01:17:41;;;;;;;14.13;12.63;;;;;;;;;;5053950;28;20378;-86
2023/01/26 01:20:08;;;;;;;14.15;12.65;;;;;;;;;;5056581;28;20386;-86
2023/01/26 01:22:34;;;;;;;15.10;13.05;;;;;;;;;;5057442;28;20474;-85
2023/01/26 01:25:00;;;;;;;14.70;13.10;;;;;;;;;;5054899;28;20788;-86
2023/01/26 01:27:26;;;;;;;14.50;12.88;;;;;;;;;;5055369;28;20461;-85
2023/01/26 01:29:52;;;;;;;15.45;13.32;;;;;;;;;;5060411;28;20409;-86
2023/01/26 01:32:19;;;;;;;14.00;12.50;;;;;;;;;;5072227;28;20414;-86
2023/01/26 01:34:48;;;;;;;13.37;11.97;;;;;;;;;;5036421;28;20946;-85
2023/01/26 01:37:15;;;;;;;13.77;12.27;;;;;;;;;;5055614;28;20396;-86
2023/01/26 01:39:41;;;;;;;13.45;12.05;;;;;;;;;;5057268;28;20410;-85
2023/01/26 01:42:07;;;;;;;13.20;11.90;;;;;;;;;;5056380;28;20409;-86
2023/01/26 01:44:37;;;;;;;14.95;12.40;;;;;;;;;;5062228;28;20857;-85
2023/01/26 01:47:03;;;;;;;12.60;11.30;;;;;;;;;;5053956;28;20373;-86
2023/01/26 01:49:31;;;;;;;12.32;11.10;;;;;;;;;;5053464;28;20450;-86
2023/01/26 01:52:00;;;;;;;11.88;10.68;;;;;;;;;;5063863;28;20385;-85
2023/01/26 01:54:30;;;;;;;12.35;11.23;;;;;;;;;;5055342;28;20476;-85
2023/01/26 01:56:57;;;;;;;12.77;11.25;;;;;;;;;;5056642;28;20392;-86
2023/01/26 01:59:24;;;;;;;13.80;11.80;;;;;;;;;;5058753;28;20382;-86
2023/01/26 02:01:51;;;;;;;12.60;11.30;;;;;;;;;;5057367;28;20418;-86
2023/01/26 02:04:18;;;;;;;13.50;11.80;;;;;;;;;;5060836;28;20405;-86
2023/01/26 02:06:55;;;;;;;12.23;11.02;;;;;;;;;;5053909;28;20730;-85
2023/01/26 02:12:12;;;;;;;11.98;10.77;;;;;;;;;;5058222;28;20518;-86
2023/01/26 02:14:38;;;;;;;12.00;10.75;;;;;;;;;;5064064;28;20381;-86
2023/01/26 02:17:04;;;;;;;12.63;11.33;;;;;;;;;;5059703;28;20456;-86
2023/01/26 02:19:42;;;;;;;11.85;10.68;;;;;;;;;;5055501;28;20386;-85
2023/01/26 02:22:12;;;;;;;13.33;11.30;;;;;;;;;;5060478;28;20396;-86
2023/01/26 02:24:39;;;;;;;11.48;10.27;;;;;;;;;;5055932;28;20405;-85
2023/01/26 02:27:06;;;;;;;12.02;10.82;;;;;;;;;;5054845;28;20386;-86
2023/01/26 02:29:32;;;;;;;11.03;9.97;;;;;;;;;;5054352;28;20398;-86
2023/01/26 02:31:57;;;;;;;11.98;10.77;;;;;;;;;;5060238;28;20374;-86
2023/01/26 02:34:27;;;;;;;12.00;10.77;;;;;;;;;;5052690;28;20385;-85
2023/01/26 02:36:57;;;;;;;11.50;10.30;;;;;;;;;;5054487;28;20509;-86
2023/01/26 02:39:42;;;;;;;12.52;11.25;;;;;;;;;;5055204;28;20431;-85
2023/01/26 02:44:53;;;;;;;12.35;11.02;;;;;;;;;;5055926;28;20448;-86
2023/01/26 02:47:19;;;;;;;12.13;10.93;;;;;;;;;;5052975;28;20376;-86
2023/01/26 02:49:45;;;;;;;11.02;9.93;;;;;;;;;;5054646;28;20423;-85
2023/01/26 02:52:11;;;;;;;11.70;10.53;;;;;;;;;;5037701;28;20875;-85
2023/01/26 02:57:22;;;;;;;11.75;10.55;;;;;;;;;;5053399;28;20469;-86
2023/01/26 02:59:48;;;;;;;10.93;9.83;;;;;;;;;;5057557;28;20371;-85
2023/01/26 03:02:14;;;;;;;10.77;9.68;;;;;;;;;;5052878;28;20385;-85
2023/01/26 03:04:40;;;;;;;10.75;9.75;;;;;;;;;;5051837;28;20401;-86
2023/01/26 03:07:06;;;;;;;10.53;9.53;;;;;;;;;;5052427;28;20823;-85
2023/01/26 03:09:32;;;;;;;11.25;10.18;;;;;;;;;;5051218;28;20449;-85
2023/01/26 03:11:58;;;;;;;11.00;9.90;;;;;;;;;;5053350;28;20376;-84
2023/01/26 03:14:24;;;;;;;11.85;9.95;;;;;;;;;;5053456;28;20384;-85
2023/01/26 03:16:50;;;;;;;12.43;11.07;;;;;;;;;;5054915;28;20855;-84
2023/01/26 03:27:34;;;;;;;11.68;10.48;;;;;;;;;;5054178;28;20364;-86
2023/01/26 03:30:00;;;;;;;12.68;11.05;;;;;;;;;;5052420;28;20847;-85
2023/01/26 03:32:26;;;;;;;12.10;10.80;;;;;;;;;;5055186;28;20373;-86
2023/01/26 03:34:52;;;;;;;12.47;11.23;;;;;;;;;;5060893;28;20457;-86
2023/01/26 03:37:21;;;;;;;12.80;11.40;;;;;;;;;;5044200;28;20408;-84
2023/01/26 03:56:31;;;;;;;13.40;12.00;;;;;;;;;;5061923;28;20446;-85
2023/01/26 03:59:06;;;;;;;14.88;12.85;;;;;;;;;;5075289;28;20390;-85
2023/01/26 04:01:33;;;;;;;13.82;11.95;;;;;;;;;;5062985;28;20397;-85
2023/01/26 04:09:30;;;;;;;13.80;12.40;;;;;;;;;;5084010;28;20375;-85
2023/01/26 04:11:56;;;;;;;13.10;11.80;;;;;;;;;;5087329;28;20380;-86
2023/01/26 04:22:43;;;;;;;12.38;11.07;;;;;;;;;;5072699;28;20379;-85
2023/01/26 04:25:11;;;;;;;13.02;11.63;;;;;;;;;;5075673;28;20715;-85
2023/01/26 04:27:37;;;;;;;13.43;12.00;;;;;;;;;;5075279;28;20380;-86
2023/01/26 04:30:03;;;;;;;12.73;11.25;;;;;;;;;;5075371;28;20375;-84
2023/01/26 04:32:29;;;;;;;12.93;11.73;;;;;;;;;;5075274;28;20372;-85
2023/01/26 04:34:55;;;;;;;13.70;11.77;;;;;;;;;;5074607;28;20399;-85
2023/01/26 04:37:21;;;;;;;12.25;11.05;;;;;;;;;;5075181;28;20382;-86
2023/01/26 04:39:47;;;;;;;12.75;11.40;;;;;;;;;;5074884;28;20405;-84
2023/01/26 04:42:13;;;;;;;12.40;11.20;;;;;;;;;;5074756;28;20376;-85
2023/01/26 04:44:39;;;;;;;18.13;13.80;;;;;;;;;;5074625;28;20407;-85
2023/01/26 04:47:05;;;;;;;11.98;10.77;;;;;;;;;;5074888;28;20860;-84
2023/01/26 04:49:31;;;;;;;12.27;11.07;;;;;;;;;;5074637;28;20383;-85
2023/01/26 04:51:57;;;;;;;13.27;11.57;;;;;;;;;;5070677;28;20391;-85
2023/01/26 04:54:23;;;;;;;12.15;10.95;;;;;;;;;;5063119;28;20408;-85
2023/01/26 04:56:50;;;;;;;12.27;10.97;;;;;;;;;;5073006;28;20463;-85
2023/01/26 04:59:16;;;;;;;12.15;10.82;;;;;;;;;;5069486;28;20558;-85
2023/01/26 05:01:43;;;;;;;12.10;10.90;;;;;;;;;;5067000;28;20380;-85
2023/01/26 05:04:10;;;;;;;11.65;10.55;;;;;;;;;;5068568;28;20401;-85
2023/01/26 05:06:37;;;;;;;11.73;10.52;;;;;;;;;;5068469;28;20380;-85
2023/01/26 05:09:03;;;;;;;11.70;10.60;;;;;;;;;;5079044;28;20445;-85
2023/01/26 05:11:29;;;;;;;11.40;10.30;;;;;;;;;;5073921;28;20384;-85
2023/01/26 05:13:55;;;;;;;13.07;11.75;;;;;;;;;;5073892;28;20438;-85
2023/01/26 05:16:21;;;;;;;12.20;10.93;;;;;;;;;;5074424;28;20907;-85
2023/01/26 05:18:47;;;;;;;12.52;11.23;;;;;;;;;;5074557;28;20396;-85
2023/01/26 05:21:13;;;;;;;12.23;11.02;;;;;;;;;;5073169;28;20391;-85
2023/01/26 05:23:39;;;;;;;12.87;11.57;;;;;;;;;;5074074;28;20483;-85
2023/01/26 05:26:05;;;;;;;13.85;11.93;;;;;;;;;;5071568;28;20376;-86
2023/01/26 05:28:31;;;;;;;12.55;11.25;;;;;;;;;;5058335;28;20393;-86
2023/01/26 05:30:57;;;;;;;12.90;11.55;;;;;;;;;;5055284;28;20381;-84
2023/01/26 05:33:23;;;;;;;13.27;11.88;;;;;;;;;;5076258;28;20372;-86
2023/01/26 05:35:49;;;;;;;13.20;11.80;;;;;;;;;;5071837;28;20896;-85
2023/01/26 05:38:15;;;;;;;12.95;11.63;;;;;;;;;;5080372;28;20394;-85
2023/01/26 05:40:42;;;;;;;13.05;11.65;;;;;;;;;;5071725;28;20388;-86
2023/01/26 05:43:07;;;;;;;12.63;11.20;;;;;;;;;;5067147;28;20412;-85
2023/01/26 05:45:34;;;;;;;12.77;11.43;;;;;;;;;;5054374;28;20463;-86
2023/01/26 05:48:00;;;;;;;12.80;11.50;;;;;;;;;;5056703;28;20439;-86
2023/01/26 05:50:35;;;;;;;12.93;11.63;;;;;;;;;;5054371;28;20465;-88
2023/01/26 05:53:01;;;;;;;12.75;11.45;;;;;;;;;;5037347;28;20386;-86
2023/01/26 05:55:28;;;;;;;12.30;11.10;;;;;;;;;;5062645;28;20468;-85
2023/01/26 05:57:54;;;;;;;12.68;11.38;;;;;;;;;;5053076;28;20381;-86
2023/01/26 06:00:27;;;;;;;14.00;12.60;;;;;;;;;;5060751;28;20515;-86
2023/01/26 06:02:53;;;;;;;12.93;11.65;;;;;;;;;;5042752;28;20401;-86
2023/01/26 06:05:29;;;;;;;13.15;11.55;;;;;;;;;;5056535;28;20429;-86
2023/01/26 06:07:55;;;;;;;14.45;12.05;;;;;;;;;;5062258;28;20370;-88
2023/01/26 06:10:21;;;;;;;12.80;11.50;;;;;;;;;;5038854;28;20733;-85
2023/01/26 06:12:49;;;;;;;12.13;11.02;;;;;;;;;;5061524;28;20442;-87
2023/01/26 06:15:15;;;;;;;14.23;11.93;;;;;;;;;;5072947;28;20380;-85
2023/01/26 06:17:41;;;;;;;13.27;11.88;;;;;;;;;;5073626;28;20787;-85
2023/01/26 06:20:08;;;;;;;12.52;11.32;;;;;;;;;;5052745;28;20388;-86
2023/01/26 06:22:34;;;;;;;12.65;11.35;;;;;;;;;;5056971;28;20436;-86
2023/01/26 06:25:00;;;;;;;12.88;11.57;;;;;;;;;;5051931;28;20386;-86
2023/01/26 06:27:26;;;;;;;13.85;12.35;;;;;;;;;;5052235;28;20382;-85
2023/01/26 06:29:52;;;;;;;13.57;12.10;;;;;;;;;;5059691;28;20373;-86
2023/01/26 06:32:18;;;;;;;13.52;12.13;;;;;;;;;;5054197;28;20472;-85
2023/01/26 06:34:44;;;;;;;13.93;12.60;;;;;;;;;;5053908;28;20496;-86
2023/01/26 06:37:10;;;;;;;14.63;13.07;;;;;;;;;;5062881;28;20428;-87
2023/01/26 06:39:36;;;;;;;13.40;12.10;;;;;;;;;;5072673;28;20434;-87
2023/01/26 06:42:02;;;;;;;14.20;11.95;;;;;;;;;;5072646;28;20383;-87
2023/01/26 06:44:28;;;;;;;13.82;12.43;;;;;;;;;;5072535;28;20395;-86
2023/01/26 06:46:54;;;;;;;15.93;14.23;;;;;;;;;;5066936;28;20374;-87
2023/01/26 06:49:20;;;;;;;13.80;12.40;;;;;;;;;;5052223;28;20381;-86
2023/01/26 06:51:56;;;;;;;12.77;11.48;;;;;;;;;;5055058;28;20375;-86
2023/01/26 06:54:22;;;;;;;12.82;11.63;;;;;;;;;;5060331;28;20389;-86
2023/01/26 06:56:48;;;;;;;12.10;11.00;;;;;;;;;;5057232;28;20415;-87
2023/01/26 06:59:15;;;;;;;12.13;10.90;;;;;;;;;;5063315;28;20385;-85
2023/01/26 07:01:43;;;;;;;12.93;11.63;;;;;;;;;;5055234;28;20438;-87
2023/01/26 07:04:09;;;;;;;12.15;11.05;;;;;;;;;;5052071;28;20405;-86
2023/01/26 07:06:35;;;;;;;12.13;11.02;;;;;;;;;;5051646;28;20397;-85
2023/01/26 07:09:01;;;;;;;12.20;11.00;;;;;;;;;;5057131;28;20399;-86
2023/01/26 07:11:29;;;;;;;10.98;9.90;;;;;;;;;;5051848;28;20409;-86
2023/01/26 07:13:55;;;;;;;10.50;9.50;;;;;;;;;;5070965;28;20411;-86
2023/01/26 07:16:21;;;;;;;11.00;9.90;;;;;;;;;;5072571;28;20388;-86
2023/01/26 07:18:47;;;;;;;11.48;10.35;;;;;;;;;;5072193;28;20944;-86
2023/01/26 07:21:14;;;;;;;10.87;9.87;;;;;;;;;;5072026;28;20394;-86
2023/01/26 07:23:41;;;;;;;11.55;10.35;;;;;;;;;;5071884;28;20414;-86
2023/01/26 07:26:07;;;;;;;13.20;11.95;;;;;;;;;;5075625;28;20890;-88
2023/01/26 07:28:33;;;;;;;11.70;10.67;;;;;;;;;;5082544;28;20435;-86
2023/01/26 07:31:00;;;;;;;11.52;10.43;;;;;;;;;;5077698;28;20522;-86
2023/01/26 07:33:26;;;;;;;12.07;10.80;;;;;;;;;;5085421;28;20390;-86
2023/01/26 07:35:53;;;;;;;11.50;10.30;;;;;;;;;;5083032;28;20439;-86
2023/01/26 07:38:19;;;;;;;11.40;10.30;;;;;;;;;;5083756;28;20398;-86
2023/01/26 07:40:45;;;;;;;12.02;10.75;;;;;;;;;;5089674;28;20439;-84
2023/01/26 07:43:11;;;;;;;11.63;10.45;;;;;;;;;;5094254;28;20411;-84
2023/01/26 07:45:37;;;;;;;11.57;10.43;;;;;;;;;;5080180;28;20395;-86
2023/01/26 07:48:03;;;;;;;12.88;11.55;;;;;;;;;;5073849;28;20380;-86
2023/01/26 07:50:29;;;;;;;12.90;11.33;;;;;;;;;;5083986;28;20373;-87
2023/01/26 07:52:55;;;;;;;13.25;11.73;;;;;;;;;;5077898;28;20725;-87
2023/01/26 07:55:24;;;;;;;12.60;11.25;;;;;;;;;;5071952;28;20375;-86
2023/01/26 07:57:50;;;;;;;12.10;10.73;;;;;;;;;;5071782;28;20505;-86
2023/01/26 08:00:17;;;;;;;12.32;11.02;;;;;;;;;;5071287;28;20565;-87
2023/01/26 08:02:43;;;;;;;13.25;11.90;;;;;;;;;;5071994;28;20375;-88
2023/01/26 08:05:09;;;;;;;12.37;11.07;;;;;;;;;;5071745;28;20375;-87
2023/01/26 08:07:35;;;;;;;12.10;10.90;;;;;;;;;;5053326;28;20757;-87
2023/01/26 08:10:01;;;;;;;16.20;13.50;;;;;;;;;;5071855;28;20371;-87
2023/01/26 08:12:27;;;;;;;12.88;11.52;;;;;;;;;;5071742;28;20386;-85
2023/01/26 08:14:53;;;;;;;16.87;14.63;;;;;;;;;;5071812;28;20380;-87
2023/01/26 08:17:19;;;;;;;14.63;12.32;;;;;;;;;;5072880;28;20848;-87
2023/01/26 08:19:45;;;;;;;12.77;11.30;;;;;;;;;;5075668;28;20395;-86
2023/01/26 08:22:11;;;;;;;15.35;12.15;;;;;;;;;;5074519;28;20383;-86
2023/01/26 08:24:37;;;;;;;21.55;17.10;;;;;;;;;;5077652;28;20422;-88
2023/01/26 08:27:04;;;;;;;16.70;12.93;;;;;;;;;;5058215;28;20437;-87
2023/01/26 08:29:30;;;;;;;14.32;12.38;;;;;;;;;;5076128;28;20376;-88
2023/01/26 08:31:56;;;;;;;17.17;13.23;;;;;;;;;;5076956;28;20446;-87
2023/01/26 08:34:22;;;;;;;16.20;12.88;;;;;;;;;;5060199;28;20417;-85
2023/01/26 08:36:48;;;;;;;17.13;12.82;;;;;;;;;;5076983;28;20391;-87
2023/01/26 08:39:14;;;;;;;17.02;12.65;;;;;;;;;;5076067;28;20383;-85
2023/01/26 08:41:40;;;;;;;13.95;12.45;;;;;;;;;;5074965;28;20457;-88
2023/01/26 08:44:06;;;;;;;14.75;12.18;;;;;;;;;;5077027;28;20808;-87
2023/01/26 08:46:32;;;;;;;14.35;12.65;;;;;;;;;;5076388;28;20380;-88
2023/01/26 08:48:58;;;;;;;16.02;12.68;;;;;;;;;;5057543;28;20410;-88
2023/01/26 08:51:24;;;;;;;13.68;12.20;;;;;;;;;;5074939;28;20905;-89
2023/01/26 08:53:53;;;;;;;16.05;12.45;;;;;;;;;;5071503;28;20413;-87
2023/01/26 08:56:19;;;;;;;16.95;12.57;;;;;;;;;;5075123;28;20497;-89
2023/01/26 08:58:45;;;;;;;16.77;13.50;;;;;;;;;;5052271;28;20388;-88
2023/01/26 09:01:12;;;;;;;15.32;12.60;;;;;;;;;;5052340;28;20411;-88
2023/01/26 09:03:38;;;;;;;16.52;13.35;;;;;;;;;;5074609;28;20414;-88
2023/01/26 09:06:05;;;;;;;17.60;13.70;;;;;;;;;;5082564;28;20456;-87
2023/01/26 09:08:31;;;;;;;17.80;13.80;;;;;;;;;;5060871;28;20896;-88
2023/01/26 09:10:57;;;;;;;18.50;13.82;;;;;;;;;;5075839;28;20449;-88
2023/01/26 09:13:23;;;;;;;18.30;13.80;;;;;;;;;;5056552;28;20486;-89
2023/01/26 09:15:50;;;;;;;17.67;13.43;;;;;;;;;;5074530;28;20903;-88
2023/01/26 09:18:16;;;;;;;19.20;15.23;;;;;;;;;;5056873;28;20482;-87
2023/01/26 09:20:43;;;;;;;15.48;12.65;;;;;;;;;;5075464;28;20387;-89
2023/01/26 09:23:10;;;;;;;15.67;12.43;;;;;;;;;;5061066;28;20982;-90
2023/01/26 09:25:42;;;;;;;16.95;12.45;;;;;;;;;;5332846;22;20429;-93
2023/01/26 09:28:08;;;;;;;15.70;12.43;;;;;;;;;;5046255;28;20465;-93
2023/01/26 09:31:31;;;;;;;14.65;12.32;;;;;;;;;;5072887;28;20387;-92
2023/01/26 09:34:09;;;;;;;13.80;11.68;;;;;;;;;;5054980;22;20420;-88
2023/01/26 09:37:06;;;;;;;13.95;12.20;;;;;;;;;;5054406;28;20418;-88
2023/01/26 09:39:31;;;;;;;13.70;11.00;;;;;;;;;;5067045;28;20437;-83
2023/01/26 09:42:16;;;;;;;12.17;10.87;;;;;;;;;;5073158;28;20737;-84
2023/01/26 09:44:51;;;;;;;12.25;10.48;;;;;;;;;;5061313;28;20421;-83
2023/01/26 09:47:23;;;;;;;13.23;11.77;;;;;;;;;;5036056;28;20385;-83
2023/01/26 09:49:49;;;;;;;13.23;10.95;;;;;;;;;;5048461;28;20737;-83
2023/01/26 09:52:20;;;;;;;11.90;10.20;;;;;;;;;;5052982;28;20382;-83
2023/01/26 09:54:50;;;;;;;10.98;9.68;;;;;;;;;;5053276;28;20438;-83
2023/01/26 09:57:37;;;;;;;11.63;9.75;;;;;;;;;;5053531;28;20466;-84
2023/01/26 10:00:08;;;;;;;11.60;10.27;;;;;;;;;;5015715;28;20779;-83
2023/01/26 10:02:40;;;;;;;10.85;9.63;;;;;;;;;;5053851;28;20468;-83
2023/01/26 10:05:29;;;;;;;14.40;12.52;;;;;;;;;;5052673;28;20826;-83
2023/01/26 10:07:55;;;;;;;12.70;10.13;;;;;;;;;;5039850;28;20529;-83
2023/01/26 10:10:34;;;;;;;11.33;10.13;;;;;;;;;;5053181;28;20539;-83
2023/01/26 10:13:00;;;;;;;25.27;17.97;;;;;;;;;;5052140;28;20457;-83
2023/01/26 10:15:42;;;;;;;29.05;20.27;;;;;;;;;;5050462;28;20384;-83
2023/01/26 10:18:12;;;;;;;15.43;12.57;;;;;;;;;;5040906;28;20404;-83
2023/01/26 10:21:04;;;;;;;14.20;11.77;;;;;;;;;;5053016;28;20383;-83
2023/01/26 10:23:31;;;;;;;12.15;9.88;;;;;;;;;;5049625;28;20975;-83
2023/01/26 10:26:27;;;;;;;10.77;9.43;;;;;;;;;;5050814;28;20740;-83
2023/01/26 10:28:53;;;;;;;10.43;9.32;;;;;;;;;;5037076;28;20423;-83
2023/01/26 10:31:23;;;;;;;11.63;9.95;;;;;;;;;;5049569;28;20896;-84
2023/01/26 10:33:54;;;;;;;10.70;9.00;;;;;;;;;;5051662;28;20391;-83
2023/01/26 10:36:20;;;;;;;12.02;9.30;;;;;;;;;;5052780;28;20466;-84
2023/01/26 10:38:46;;;;;;;11.82;9.38;;;;;;;;;;5052704;28;20862;-83
2023/01/26 10:41:18;;;;;;;10.40;9.30;;;;;;;;;;5052775;28;20454;-83
2023/01/26 10:43:56;;;;;;;11.02;9.82;;;;;;;;;;5052781;28;20439;-83
2023/01/26 10:46:25;;;;;;;12.30;9.05;;;;;;;;;;5052879;28;20496;-83
2023/01/26 10:48:52;;;;;;;35.85;11.73;;;;;;;;;;5052529;28;20527;-83
2023/01/26 10:51:22;;;;;;;11.87;9.03;;;;;;;;;;5051690;28;20377;-83
2023/01/26 10:53:48;;;;;;;9.88;8.77;;;;;;;;;;5045705;28;20370;-83
2023/01/26 10:56:16;;;;;;;9.57;8.50;;;;;;;;;;5052828;28;20373;-83
2023/01/26 10:58:41;;;;;;;8.93;8.02;;;;;;;;;;5051119;28;20864;-83
2023/01/26 11:01:11;;;;;;;10.30;9.00;;;;;;;;;;5034034;28;20398;-83
2023/01/26 11:03:40;;;;;;;10.98;8.48;;;;;;;;;;5038369;28;20405;-83
2023/01/26 11:06:07;;;;;;;11.07;9.82;;;;;;;;;;5058813;28;20393;-83
2023/01/26 11:08:34;;;;;;;9.15;8.25;;;;;;;;;;5041379;28;20428;-83
2023/01/26 11:11:02;;;;;;;12.77;9.23;;;;;;;;;;5062674;28;20388;-82
2023/01/26 11:13:28;;;;;;;9.20;8.30;;;;;;;;;;5070014;28;20446;-82
2023/01/26 11:16:20;;;;;;;9.40;8.35;;;;;;;;;;5054552;28;20388;-83
2023/01/26 11:18:52;;;;;;;17.38;8.77;;;;;;;;;;5055183;28;20389;-84
2023/01/26 11:21:26;;;;;;;8.48;7.50;;;;;;;;;;5050830;28;20407;-83
2023/01/26 11:24:09;;;;;;;9.70;8.70;;;;;;;;;;5047698;28;20408;-83
2023/01/26 11:26:47;;;;;;;11.77;8.63;;;;;;;;;;5052386;28;20365;-83
2023/01/26 11:29:31;;;;;;;9.23;7.63;;;;;;;;;;5052034;28;20422;-83
2023/01/26 11:32:12;;;;;;;8.07;7.07;;;;;;;;;;5044368;28;20440;-83
2023/01/26 11:34:43;;;;;;;7.63;6.82;;;;;;;;;;5049628;28;20446;-83
2023/01/26 11:37:09;;;;;;;8.52;7.35;;;;;;;;;;5052034;28;20377;-83
2023/01/26 11:39:58;;;;;;;11.13;7.55;;;;;;;;;;5052185;28;20385;-83
2023/01/26 11:42:27;;;;;;;7.80;7.00;;;;;;;;;;5044139;28;20392;-83
2023/01/26 11:45:00;;;;;;;13.15;8.13;;;;;;;;;;5051975;28;20413;-84
2023/01/26 11:47:26;;;;;;;8.45;7.65;;;;;;;;;;5052011;28;20554;-83
2023/01/26 11:49:58;;;;;;;20.88;8.57;;;;;;;;;;5051884;28;20480;-83
2023/01/26 11:52:34;;;;;;;10.98;7.30;;;;;;;;;;5054652;28;20463;-84
2023/01/26 11:55:24;;;;;;;19.05;10.88;;;;;;;;;;5057985;28;20472;-83
2023/01/26 11:58:05;;;;;;;9.37;7.20;;;;;;;;;;5056007;28;20381;-83
2023/01/26 12:00:42;;;;;;;44.70;26.45;;;;;;;;;;5055745;28;20735;-83
2023/01/26 12:03:17;;;;;;;9.90;9.00;;;;;;;;;;5055704;28;20416;-83
2023/01/26 12:05:45;;;;;;;114.33;65.27;;;;;;;;;;5052537;28;20445;-83
2023/01/26 12:08:11;;;;;;;11.88;8.70;;;;;;;;;;5049779;28;20855;-83
2023/01/26 12:11:21;;;;;;;9.23;7.93;;;;;;;;;;5055469;28;20465;-83
2023/01/26 12:14:02;;;;;;;18.17;16.38;;;;;;;;;;5026964;28;20430;-83
2023/01/26 12:16:41;;;;;;;10.05;7.95;;;;;;;;;;5054979;28;20470;-84
2023/01/26 12:19:33;;;;;;;11.77;9.13;;;;;;;;;;5037651;28;20458;-83
2023/01/26 12:22:03;;;;;;;12.95;8.95;;;;;;;;;;5037597;28;20438;-83
2023/01/26 12:24:52;;;;;;;8.80;7.90;;;;;;;;;;5055334;28;20446;-83
2023/01/26 12:27:41;;;;;;;9.32;8.32;;;;;;;;;;5037290;28;20911;-83
2023/01/26 12:30:22;;;;;;;11.43;8.68;;;;;;;;;;5054483;28;20381;-83
2023/01/26 12:32:48;;;;;;;10.07;8.50;;;;;;;;;;5050873;28;20437;-83
2023/01/26 12:35:14;;;;;;;10.93;9.70;;;;;;;;;;5054850;28;20413;-83
2023/01/26 12:37:54;;;;;;;9.55;8.40;;;;;;;;;;5054995;28;20866;-83
2023/01/26 12:40:30;;;;;;;10.30;8.60;;;;;;;;;;5052840;28;20407;-86
2023/01/26 12:43:07;;;;;;;9.57;8.55;;;;;;;;;;5050815;28;20387;-88
2023/01/26 12:45:39;;;;;;;9.98;8.30;;;;;;;;;;5048014;28;20390;-85
2023/01/26 12:48:21;;;;;;;11.37;8.67;;;;;;;;;;5049604;28;20389;-85
2023/01/26 12:50:50;;;;;;;11.50;8.80;;;;;;;;;;5049829;28;20421;-88
2023/01/26 12:53:23;;;;;;;13.32;9.35;;;;;;;;;;5054333;28;20936;-86
2023/01/26 12:55:54;;;;;;;15.55;11.52;;;;;;;;;;5054880;28;20381;-84
2023/01/26 12:58:22;;;;;;;12.52;10.32;;;;;;;;;;5054109;28;20409;-84
2023/01/26 13:01:14;;;;;;;12.55;10.20;;;;;;;;;;5053023;28;20413;-84
2023/01/26 13:03:51;;;;;;;11.98;9.75;;;;;;;;;;5049651;28;20492;-84
2023/01/26 13:06:19;;;;;;;10.70;9.50;;;;;;;;;;5053331;28;20385;-84
2023/01/26 13:08:52;;;;;;;12.30;9.88;;;;;;;;;;5052623;28;20831;-84
2023/01/26 13:11:38;;;;;;;11.38;9.43;;;;;;;;;;5046702;28;20381;-84
2023/01/26 13:14:23;;;;;;;12.55;9.20;;;;;;;;;;5042549;28;20400;-85
2023/01/26 13:16:49;;;;;;;13.30;9.43;;;;;;;;;;5051122;28;20399;-84
2023/01/26 13:19:33;;;;;;;12.30;9.82;;;;;;;;;;5053177;28;20421;-84
2023/01/26 13:21:59;;;;;;;14.25;9.10;;;;;;;;;;5052881;28;20755;-84
2023/01/26 13:24:25;;;;;;;11.85;9.43;;;;;;;;;;5045440;28;20405;-84
2023/01/26 13:26:55;;;;;;;14.90;9.67;;;;;;;;;;5051458;28;20390;-84
2023/01/26 13:29:24;;;;;;;11.70;9.32;;;;;;;;;;5053942;28;20433;-84
2023/01/26 13:31:51;;;;;;;10.93;9.10;;;;;;;;;;5053992;28;20391;-85
2023/01/26 13:34:20;;;;;;;14.25;9.90;;;;;;;;;;5048337;28;20496;-85
2023/01/26 13:36:47;;;;;;;25.05;12.55;;;;;;;;;;5053922;28;20385;-85
2023/01/26 13:39:18;;;;;;;18.95;11.95;;;;;;;;;;5035880;28;20914;-85
2023/01/26 13:41:46;;;;;;;17.40;12.10;;;;;;;;;;5049970;28;20404;-84
2023/01/26 13:44:21;;;;;;;13.35;10.63;;;;;;;;;;5034281;28;20419;-84
2023/01/26 13:47:00;;;;;;;13.00;10.95;;;;;;;;;;5035388;28;20896;-85
2023/01/26 13:49:52;;;;;;;14.45;11.32;;;;;;;;;;5025818;28;20460;-85
2023/01/26 13:52:24;;;;;;;15.00;10.95;;;;;;;;;;5029096;28;22128;-86
2023/01/26 13:54:51;;;;;;;17.02;11.25;;;;;;;;;;5033303;28;20435;-85
2023/01/26 13:57:22;;;;;;;10.83;9.33;;;;;;;;;;5035356;28;20461;-84
2023/01/26 13:59:48;;;;;;;11.35;8.98;;;;;;;;;;5036824;28;20414;-85
2023/01/26 14:02:22;;;;;;;9.88;8.88;;;;;;;;;;5040872;28;20503;-85
2023/01/26 14:04:54;;;;;;;13.32;9.48;;;;;;;;;;5053117;28;20449;-86
2023/01/26 14:07:21;;;;;;;12.07;9.60;;;;;;;;;;5053138;28;20418;-85
2023/01/26 14:09:49;;;;;;;11.98;9.75;;;;;;;;;;5053370;28;20385;-85
2023/01/26 14:12:22;;;;;;;11.18;8.77;;;;;;;;;;5053016;28;20408;-85
2023/01/26 14:14:49;;;;;;;10.90;8.65;;;;;;;;;;5048860;28;20456;-85
2023/01/26 14:17:27;;;;;;;9.10;7.73;;;;;;;;;;5038540;28;20449;-85
2023/01/26 14:19:53;;;;;;;9.87;8.60;;;;;;;;;;5052858;28;20381;-85
2023/01/26 14:22:19;;;;;;;10.27;8.98;;;;;;;;;;5052937;28;20397;-85
2023/01/26 14:24:49;;;;;;;10.87;9.77;;;;;;;;;;5052991;28;20486;-85
2023/01/26 14:27:35;;;;;;;9.23;7.93;;;;;;;;;;5053957;28;20429;-85
2023/01/26 14:30:07;;;;;;;8.52;7.72;;;;;;;;;;5052892;28;20434;-85
2023/01/26 14:32:33;;;;;;;9.25;8.30;;;;;;;;;;5038914;28;20852;-86
2023/01/26 14:35:00;;;;;;;13.68;11.10;;;;;;;;;;5052899;28;20402;-86
2023/01/26 14:37:26;;;;;;;13.35;10.73;;;;;;;;;;5062008;28;20388;-87
2023/01/26 14:40:12;;;;;;;11.55;9.30;;;;;;;;;;5066714;28;20393;-85
2023/01/26 14:42:38;;;;;;;8.15;7.35;;;;;;;;;;5069599;28;20448;-87
2023/01/26 14:45:05;;;;;;;9.00;7.50;;;;;;;;;;5059373;28;20405;-86
2023/01/26 14:47:31;;;;;;;8.20;7.40;;;;;;;;;;5049754;28;20867;-85
2023/01/26 14:50:02;;;;;;;11.20;9.32;;;;;;;;;;5043766;28;20381;-85
2023/01/26 14:52:28;;;;;;;9.43;8.52;;;;;;;;;;5053626;28;20381;-85
2023/01/26 14:54:55;;;;;;;8.25;7.45;;;;;;;;;;5052814;28;20783;-85
2023/01/26 14:57:23;;;;;;;9.50;6.90;;;;;;;;;;5053064;28;20403;-85
2023/01/26 14:59:51;;;;;;;9.00;7.70;;;;;;;;;;5052660;28;20450;-86
2023/01/26 15:02:35;;;;;;;7.93;7.10;;;;;;;;;;5031239;28;20436;-85
2023/01/26 15:05:02;;;;;;;7.93;7.13;;;;;;;;;;5050586;28;20405;-85
2023/01/26 15:07:37;;;;;;;9.18;7.72;;;;;;;;;;5034403;28;20386;-84
2023/01/26 15:10:04;;;;;;;11.27;7.88;;;;;;;;;;5052207;28;20374;-85
2023/01/26 15:12:34;;;;;;;9.73;7.93;;;;;;;;;;5034311;28;20891;-85
2023/01/26 15:15:00;;;;;;;9.10;8.10;;;;;;;;;;5052052;28;20410;-86
2023/01/26 15:17:42;;;;;;;8.48;7.40;;;;;;;;;;5052282;28;20385;-85
2023/01/26 15:20:14;;;;;;;9.27;7.78;;;;;;;;;;5049576;28;20517;-85
2023/01/26 15:22:40;;;;;;;8.27;7.13;;;;;;;;;;5049690;28;20390;-85
2023/01/26 15:25:19;;;;;;;7.63;6.72;;;;;;;;;;5052043;28;20443;-85